Time;durP1;ratioP1;P1;durP2;ratioP2;P2;SDS_P1;SDS_P2;PMS_P1;PMS_P2;Temp;Humidity;BMP_temperature;BMP_pressure;BME280_temperature;BME280_humidity;BME280_pressure;Samples;Min_cycle;Max_cycle;Signal;HPM_P1;HPM_P2
2022/09/21 00:01:57;;;;;;;9.60;6.50;;;;;;;4.60;100.00;97483.63;109870;1250;58862;-68
2022/09/21 00:04:27;;;;;;;9.50;6.70;;;;;;;4.62;100.00;97482.84;109686;1250;58876;-69
2022/09/21 00:06:58;;;;;;;8.60;6.30;;;;;;;4.65;100.00;97484.80;109652;1250;70001;-69
2022/09/21 00:09:30;;;;;;;11.50;7.70;;;;;;;4.67;100.00;97480.38;109651;1250;68859;-69
2022/09/21 00:12:01;;;;;;;11.20;8.40;;;;;;;4.71;100.00;97477.91;109750;1250;69219;-69
2022/09/21 00:14:31;;;;;;;12.60;7.80;;;;;;;4.74;100.00;97475.87;109679;1250;58950;-71
2022/09/21 00:17:00;;;;;;;10.30;7.10;;;;;;;4.77;100.00;97475.88;109826;1250;58821;-69
2022/09/21 00:19:30;;;;;;;10.80;7.10;;;;;;;4.82;100.00;97477.91;109665;1250;69958;-69
2022/09/21 00:22:00;;;;;;;10.30;6.80;;;;;;;4.87;100.00;97474.36;109853;1250;68607;-70
2022/09/21 00:24:31;;;;;;;11.50;7.80;;;;;;;4.92;100.00;97473.98;109765;1250;67519;-70
2022/09/21 00:27:01;;;;;;;12.40;8.90;;;;;;;4.98;100.00;97472.14;109710;1250;58976;-70
2022/09/21 00:29:31;;;;;;;9.90;7.00;;;;;;;5.03;100.00;97471.00;109857;1250;58874;-70
2022/09/21 00:32:03;;;;;;;8.70;6.80;;;;;;;5.06;100.00;97466.33;109383;1250;634044;-70
2022/09/21 00:34:35;;;;;;;8.90;6.40;;;;;;;5.11;100.00;97465.05;109732;1250;69358;-69
2022/09/21 00:37:05;;;;;;;9.60;6.00;;;;;;;5.15;100.00;97468.33;109816;1250;68849;-70
2022/09/21 00:39:35;;;;;;;10.30;7.20;;;;;;;5.18;100.00;97468.03;109716;1250;58970;-70
2022/09/21 00:42:17;;;;;;;11.50;6.90;;;;;;;5.20;100.00;97461.15;109867;1250;58900;-69
2022/09/21 00:44:48;;;;;;;10.10;6.80;;;;;;;5.23;100.00;97463.41;109878;1250;70741;-71
2022/09/21 00:47:38;;;;;;;9.50;7.70;;;;;;;5.27;100.00;97460.64;109935;1250;69400;-70
2022/09/21 00:50:13;;;;;;;11.70;7.60;;;;;;;5.31;100.00;97462.00;109817;1250;69032;-68
2022/09/21 00:52:50;;;;;;;11.30;7.70;;;;;;;5.34;100.00;97457.69;109647;1250;58983;-70
2022/09/21 00:55:28;;;;;;;10.80;8.40;;;;;;;5.38;100.00;97462.14;109703;1251;58929;-69
2022/09/21 00:58:08;;;;;;;13.60;9.60;;;;;;;5.41;100.00;97464.92;109726;1250;69893;-69
2022/09/21 01:00:42;;;;;;;11.30;8.30;;;;;;;5.38;100.00;97459.89;109772;1250;69366;-70
2022/09/21 01:03:13;;;;;;;9.50;6.80;;;;;;;5.35;100.00;97458.83;109616;1250;69388;-70
2022/09/21 01:05:45;;;;;;;9.10;7.20;;;;;;;5.31;99.97;97456.60;109669;1251;58967;-69
2022/09/21 01:08:19;;;;;;;11.40;7.80;;;;;;;5.29;100.00;97459.48;109854;1250;58879;-69
2022/09/21 01:11:19;;;;;;;9.90;7.50;;;;;;;5.30;100.00;97455.80;109837;1250;69863;-69
2022/09/21 01:14:17;;;;;;;10.20;8.20;;;;;;;5.31;100.00;97454.55;109638;1250;68473;-70
2022/09/21 01:17:22;;;;;;;10.20;7.70;;;;;;;5.32;100.00;97453.33;109628;1251;68612;-70
2022/09/21 01:20:24;;;;;;;10.00;6.90;;;;;;;5.32;100.00;97452.27;109695;1251;58934;-69
2022/09/21 01:23:06;;;;;;;8.50;7.30;;;;;;;5.33;100.00;97451.00;109679;1250;58877;-70
2022/09/21 01:25:49;;;;;;;13.50;8.90;;;;;;;5.35;100.00;97453.64;109878;1250;70741;-68
2022/09/21 01:28:39;;;;;;;11.50;8.10;;;;;;;5.38;100.00;97452.29;109796;1250;67965;-68
2022/09/21 01:31:18;;;;;;;10.80;7.40;;;;;;;5.40;100.00;97452.70;109617;1250;69384;-70
2022/09/21 01:33:53;;;;;;;13.00;8.50;;;;;;;5.42;100.00;97449.36;109643;1250;58939;-68
2022/09/21 01:36:28;;;;;;;13.80;9.20;;;;;;;5.44;100.00;97450.43;109644;1250;59378;-68
2022/09/21 01:39:08;;;;;;;12.20;9.10;;;;;;;5.46;100.00;97447.06;109646;1250;69775;-70
2022/09/21 01:41:41;;;;;;;10.20;7.70;;;;;;;5.46;100.00;97445.66;109591;1250;68669;-71
2022/09/21 01:44:18;;;;;;;11.70;8.00;;;;;;;5.46;100.00;97443.06;109681;1250;68613;-69
2022/09/21 01:46:50;;;;;;;9.10;6.40;;;;;;;5.46;100.00;97444.63;109900;1250;58970;-68
2022/09/21 01:49:27;;;;;;;9.30;6.70;;;;;;;5.45;100.00;97445.36;109751;1250;59262;-70
2022/09/21 01:52:10;;;;;;;10.80;8.50;;;;;;;5.43;100.00;97446.15;109809;1250;70744;-69
2022/09/21 01:54:53;;;;;;;10.20;8.30;;;;;;;5.41;100.00;97444.21;109698;1250;68636;-70
2022/09/21 01:57:40;;;;;;;11.80;8.20;;;;;;;5.38;100.00;97445.23;109751;1250;68658;-70
2022/09/21 02:00:13;;;;;;;11.10;8.20;;;;;;;5.34;100.00;97444.05;109706;1250;58946;-70
2022/09/21 02:03:01;;;;;;;11.40;8.20;;;;;;;5.31;100.00;97444.70;109892;1251;58886;-69
2022/09/21 02:05:32;;;;;;;10.20;8.00;;;;;;;5.28;100.00;97449.38;109713;1250;70003;-68
2022/09/21 02:08:05;;;;;;;11.00;8.20;;;;;;;5.22;100.00;97446.36;109879;1251;69239;-69
2022/09/21 02:10:50;;;;;;;9.90;7.10;;;;;;;5.16;100.00;97446.86;109679;1250;69733;-70
2022/09/21 02:13:26;;;;;;;9.30;6.70;;;;;;;5.10;100.00;97444.73;109743;1250;58825;-68
2022/09/21 02:16:12;;;;;;;9.70;7.40;;;;;;;5.03;100.00;97446.65;109775;1250;58834;-71
2022/09/21 02:18:56;;;;;;;11.40;8.40;;;;;;;4.97;100.00;97450.77;109743;1250;70764;-70
2022/09/21 02:21:38;;;;;;;10.00;7.10;;;;;;;4.89;100.00;97453.38;109772;1250;69097;-71
2022/09/21 02:24:22;;;;;;;12.30;9.40;;;;;;;4.83;100.00;97451.27;109906;1250;69459;-70
2022/09/21 02:27:02;;;;;;;12.20;9.50;;;;;;;4.78;100.00;97453.58;109879;1250;58971;-69
2022/09/21 02:29:37;;;;;;;10.40;8.30;;;;;;;4.73;100.00;97454.71;109967;1250;58913;-69
2022/09/21 02:32:32;;;;;;;11.10;8.50;;;;;;;4.68;100.00;97453.03;109811;1250;70752;-70
2022/09/21 02:35:07;;;;;;;11.40;6.50;;;;;;;4.64;100.00;97453.55;109634;1250;68722;-70
2022/09/21 02:37:55;;;;;;;9.30;7.00;;;;;;;4.62;100.00;97458.15;109714;1250;68358;-70
2022/09/21 02:40:53;;;;;;;8.60;6.30;;;;;;;4.60;100.00;97456.35;109726;1250;58924;-70
2022/09/21 02:43:45;;;;;;;9.30;7.40;;;;;;;4.58;100.00;97457.45;109550;1250;58939;-70
2022/09/21 02:46:21;;;;;;;10.70;7.60;;;;;;;4.57;100.00;97459.73;109633;1250;70801;-70
2022/09/21 02:49:05;;;;;;;11.20;7.80;;;;;;;4.58;100.00;97457.62;109784;1250;69393;-71
2022/09/21 02:51:42;;;;;;;9.80;7.30;;;;;;;4.60;100.00;97459.09;109679;1250;69667;-69
2022/09/21 02:54:14;;;;;;;15.50;9.70;;;;;;;4.62;100.00;97460.55;109867;1249;58941;-68
2022/09/21 02:56:47;;;;;;;15.20;10.30;;;;;;;4.67;100.00;97462.41;109734;1250;58976;-70
2022/09/21 02:59:17;;;;;;;13.10;9.10;;;;;;;4.71;100.00;97466.53;109736;1250;70785;-68
2022/09/21 03:01:46;;;;;;;10.80;7.00;;;;;;;4.74;100.00;97465.50;109964;1250;68637;-69
2022/09/21 03:04:16;;;;;;;13.60;8.30;;;;;;;4.77;100.00;97466.22;109734;1250;69381;-71
2022/09/21 03:06:45;;;;;;;11.70;8.20;;;;;;;4.81;100.00;97467.07;109958;1250;58883;-69
2022/09/21 03:09:16;;;;;;;12.50;8.00;;;;;;;4.85;100.00;97469.12;109845;1250;58903;-71
2022/09/21 03:11:47;;;;;;;11.70;8.20;;;;;;;4.89;100.00;97471.36;109979;1248;71334;-69
2022/09/21 03:14:18;;;;;;;11.10;7.80;;;;;;;4.94;100.00;97466.63;109863;1250;69231;-70
2022/09/21 03:16:47;;;;;;;11.80;8.00;;;;;;;5.00;100.00;97466.66;109814;1249;69468;-71
2022/09/21 03:19:17;;;;;;;10.90;7.50;;;;;;;5.05;100.00;97466.38;109847;1250;58956;-70
2022/09/21 03:21:47;;;;;;;12.40;7.70;;;;;;;5.11;100.00;97467.66;109650;1249;58898;-69
2022/09/21 03:24:44;;;;;;;12.80;9.00;;;;;;;5.16;100.00;97469.85;109777;1250;69760;-70
2022/09/21 03:27:08;;;;;;;;;;;;;;;5.19;100.00;97467.81;109750;1251;69466;-70
2022/09/21 03:29:38;;;;;;;16.20;9.90;;;;;;;5.20;100.00;97466.20;109799;1250;69253;-71
2022/09/21 03:32:08;;;;;;;13.20;9.60;;;;;;;5.20;100.00;97467.73;109617;1251;58886;-71
2022/09/21 03:34:38;;;;;;;;;;;;;;;5.17;100.00;97468.90;109907;1250;58839;-69
2022/09/21 03:37:09;;;;;;;10.90;7.00;;;;;;;5.10;100.00;97470.83;109679;1250;70683;-69
2022/09/21 03:39:39;;;;;;;9.80;6.80;;;;;;;5.05;100.00;97468.96;109749;1250;68781;-70
2022/09/21 03:42:09;;;;;;;12.30;8.00;;;;;;;5.03;100.00;97471.85;109716;1250;68671;-70
2022/09/21 03:44:40;;;;;;;9.70;7.30;;;;;;;5.00;100.00;97471.68;109695;1250;59164;-71
2022/09/21 03:47:09;;;;;;;8.70;6.90;;;;;;;4.98;100.00;97474.36;109736;1250;58953;-70
2022/09/21 03:49:40;;;;;;;13.00;9.10;;;;;;;4.96;100.00;97477.05;109688;1250;69975;-69
2022/09/21 03:52:09;;;;;;;11.70;8.70;;;;;;;4.91;100.00;97474.85;109697;1250;68888;-69
2022/09/21 03:54:39;;;;;;;8.40;5.70;;;;;;;4.85;100.00;97477.07;109700;1250;69384;-69
2022/09/21 03:57:09;;;;;;;10.10;6.70;;;;;;;4.81;100.00;97480.69;109657;1251;58936;-69
2022/09/21 03:59:38;;;;;;;8.40;5.40;;;;;;;4.78;100.00;97481.05;109687;1251;58905;-69
2022/09/21 04:02:07;;;;;;;13.30;9.80;;;;;;;4.75;100.00;97481.52;109714;1248;69957;-69
2022/09/21 04:04:37;;;;;;;22.70;15.20;;;;;;;4.73;100.00;97488.00;109688;1250;69235;-69
2022/09/21 04:07:07;;;;;;;28.10;20.40;;;;;;;4.72;100.00;97486.69;109672;1250;69636;-69
2022/09/21 04:09:36;;;;;;;40.70;29.10;;;;;;;4.72;100.00;97491.70;109676;1250;58958;-69
2022/09/21 04:12:05;;;;;;;30.20;20.80;;;;;;;4.74;100.00;97492.98;109695;1251;58833;-71
2022/09/21 04:14:35;;;;;;;24.40;17.20;;;;;;;4.77;100.00;97492.29;109662;1251;70787;-71
2022/09/21 04:17:04;;;;;;;23.60;16.00;;;;;;;4.82;100.00;97492.58;109884;1251;68694;-69
2022/09/21 04:19:34;;;;;;;22.80;15.90;;;;;;;4.87;100.00;97495.27;109795;1250;69461;-69
2022/09/21 04:22:04;;;;;;;13.00;9.20;;;;;;;4.92;100.00;97494.67;109928;1250;58928;-68
2022/09/21 04:24:33;;;;;;;12.20;8.10;;;;;;;4.99;100.00;97499.36;109710;1250;58920;-69
2022/09/21 04:27:03;;;;;;;11.00;7.80;;;;;;;5.06;100.00;97504.00;109837;1249;70041;-69
2022/09/21 04:29:32;;;;;;;12.80;8.00;;;;;;;5.12;100.00;97506.98;109893;1250;69395;-71
2022/09/21 04:32:02;;;;;;;15.40;8.80;;;;;;;5.20;100.00;97509.89;109669;1250;68546;-67
2022/09/21 04:34:31;;;;;;;10.90;7.70;;;;;;;5.27;100.00;97507.98;109877;1250;58886;-68
2022/09/21 04:37:00;;;;;;;11.70;7.40;;;;;;;5.34;100.00;97511.09;109850;1250;58893;-70
2022/09/21 04:39:28;;;;;;;14.30;9.70;;;;;;;5.41;100.00;97513.70;109753;1250;70010;-71
2022/09/21 04:41:57;;;;;;;14.10;8.60;;;;;;;5.47;100.00;97518.02;109842;1250;69173;-70
2022/09/21 04:44:28;;;;;;;16.70;11.00;;;;;;;5.55;100.00;97521.77;109959;1250;69823;-69
2022/09/21 04:46:57;;;;;;;14.00;10.10;;;;;;;5.65;100.00;97526.11;109861;1250;58868;-69
2022/09/21 04:49:26;;;;;;;13.80;9.00;;;;;;;5.73;100.00;97523.46;109899;1250;58946;-69
2022/09/21 04:51:55;;;;;;;12.90;9.10;;;;;;;5.80;100.00;97528.10;109702;1250;71084;-70
2022/09/21 04:54:25;;;;;;;10.70;7.60;;;;;;;5.90;100.00;97530.41;109861;1250;68612;-71
2022/09/21 04:56:56;;;;;;;10.60;7.10;;;;;;;5.98;100.00;97529.46;109727;1251;68673;-68
2022/09/21 04:59:25;;;;;;;12.80;7.70;;;;;;;6.06;100.00;97532.46;109829;1251;58870;-69
2022/09/21 05:01:54;;;;;;;10.20;7.20;;;;;;;6.14;100.00;97533.27;109891;1250;58877;-69
2022/09/21 05:04:23;;;;;;;12.20;8.00;;;;;;;6.21;100.00;97538.09;109826;1251;70811;-69
2022/09/21 05:06:52;;;;;;;17.40;11.30;;;;;;;6.30;100.00;97542.81;109795;1250;69584;-70
2022/09/21 05:12:08;;;;;;;13.80;8.60;;;;;;;6.33;100.00;97545.93;109989;1249;58803;-68
2022/09/21 05:14:37;;;;;;;18.00;9.90;;;;;;;6.33;100.00;97542.98;110077;1251;58968;-69
2022/09/21 05:17:07;;;;;;;15.90;9.40;;;;;;;6.35;100.00;97540.60;109861;1248;70780;-70
2022/09/21 05:19:36;;;;;;;16.90;10.00;;;;;;;6.40;100.00;97542.11;109925;1250;69475;-70
2022/09/21 05:22:05;;;;;;;15.00;8.90;;;;;;;6.44;100.00;97544.81;109829;1249;69776;-68
2022/09/21 05:24:34;;;;;;;12.40;6.50;;;;;;;6.48;100.00;97541.53;109800;1250;58927;-71
2022/09/21 05:27:03;;;;;;;23.30;9.80;;;;;;;6.55;100.00;97545.77;109758;1250;58877;-69
2022/09/21 05:29:33;;;;;;;15.20;8.70;;;;;;;6.61;100.00;97548.41;109887;1250;71805;-70
2022/09/21 05:32:15;;;;;;;11.80;7.20;;;;;;;6.67;100.00;97547.20;109742;1250;70163;-71
2022/09/21 05:35:20;;;;;;;12.10;8.20;;;;;;;6.71;100.00;97547.71;109807;1249;69222;-69
2022/09/21 05:38:03;;;;;;;6.80;4.70;;;;;;;6.76;100.00;97548.47;109942;1250;58924;-69
2022/09/21 05:40:32;;;;;;;10.70;7.30;;;;;;;6.82;100.00;97547.59;109890;1250;58848;-69
2022/09/21 05:43:02;;;;;;;8.90;6.30;;;;;;;6.89;100.00;97547.36;110020;1250;71478;-71
2022/09/21 05:45:35;;;;;;;10.20;6.00;;;;;;;6.97;100.00;97546.05;109710;1249;68923;-69
2022/09/21 05:48:10;;;;;;;11.30;7.60;;;;;;;7.03;100.00;97545.55;109715;1250;68460;-68
2022/09/21 05:51:08;;;;;;;15.50;10.00;;;;;;;7.09;100.00;97539.52;109718;1250;58901;-68
2022/09/21 05:54:14;;;;;;;14.40;9.40;;;;;;;7.11;99.91;97537.98;109739;1250;58986;-68
2022/09/21 05:57:05;;;;;;;11.50;7.80;;;;;;;7.14;99.82;97540.92;109743;1250;70788;-71
2022/09/21 05:59:34;;;;;;;10.80;7.00;;;;;;;7.18;99.81;97543.68;109875;1250;68601;-68
2022/09/21 06:02:25;;;;;;;7.80;4.50;;;;;;;7.25;99.87;97545.02;109893;1249;68782;-68
2022/09/21 06:04:57;;;;;;;11.20;7.10;;;;;;;7.31;99.02;97544.48;109636;1250;58895;-71
2022/09/21 06:07:25;;;;;;;17.00;9.40;;;;;;;7.32;98.37;97541.49;109834;1249;58873;-70
2022/09/21 06:09:54;;;;;;;12.80;8.60;;;;;;;7.29;97.73;97545.67;109690;1250;70741;-69
2022/09/21 06:12:23;;;;;;;12.90;7.90;;;;;;;7.29;97.42;97548.24;109709;1249;69406;-68
2022/09/21 06:14:52;;;;;;;10.70;6.80;;;;;;;7.30;97.19;97549.73;109723;1250;69534;-68
2022/09/21 06:17:21;;;;;;;12.20;7.60;;;;;;;7.41;97.39;97552.23;109858;1250;58890;-69
2022/09/21 06:19:50;;;;;;;10.50;7.20;;;;;;;7.51;98.43;97556.30;109707;1250;58938;-68
2022/09/21 06:22:19;;;;;;;8.20;5.10;;;;;;;7.61;97.32;97554.67;109916;1250;70794;-68
2022/09/21 06:24:48;;;;;;;11.70;8.00;;;;;;;7.71;97.16;97556.54;109723;1250;68632;-68
2022/09/21 06:27:17;;;;;;;7.90;5.50;;;;;;;7.80;97.57;97559.65;109761;1250;68906;-70
2022/09/21 06:29:46;;;;;;;8.90;6.80;;;;;;;7.84;96.51;97561.83;109653;1250;58909;-69
2022/09/21 06:32:15;;;;;;;12.30;8.70;;;;;;;7.88;96.30;97564.52;109597;1251;58843;-69
2022/09/21 06:34:44;;;;;;;10.80;7.20;;;;;;;7.93;96.40;97569.99;109650;1251;70730;-68
2022/09/21 06:37:12;;;;;;;11.70;8.70;;;;;;;7.97;96.28;97570.78;109776;1251;70044;-70
2022/09/21 06:39:41;;;;;;;12.20;8.60;;;;;;;7.99;95.86;97574.16;109783;1251;69485;-68
2022/09/21 06:42:10;;;;;;;11.00;8.00;;;;;;;7.98;95.55;97577.85;109670;1250;58924;-70
2022/09/21 06:44:39;;;;;;;12.60;8.40;;;;;;;7.98;95.46;97580.67;109921;1250;59335;-69
2022/09/21 06:47:08;;;;;;;11.20;8.60;;;;;;;7.96;95.23;97576.61;109693;1250;70765;-70
2022/09/21 06:49:36;;;;;;;9.90;7.10;;;;;;;7.95;95.08;97581.35;109790;1251;69434;-68
2022/09/21 06:52:10;;;;;;;10.10;7.30;;;;;;;7.97;95.05;97579.67;109692;1250;68962;-69
2022/09/21 06:54:41;;;;;;;10.30;8.10;;;;;;;7.97;94.98;97582.27;109683;1249;58947;-68
2022/09/21 06:57:10;;;;;;;12.90;9.10;;;;;;;7.96;94.81;97582.85;109690;1250;58963;-68
2022/09/21 06:59:39;;;;;;;11.40;8.30;;;;;;;7.89;93.88;97582.03;109712;1250;70286;-70
2022/09/21 07:02:08;;;;;;;9.50;7.00;;;;;;;7.93;94.48;97582.30;109975;1249;68734;-69
2022/09/21 07:04:37;;;;;;;9.90;6.90;;;;;;;8.00;94.76;97587.79;109735;1251;69771;-68
2022/09/21 07:07:06;;;;;;;10.20;6.30;;;;;;;8.07;94.58;97587.70;109658;1249;58936;-70
2022/09/21 07:09:34;;;;;;;9.00;6.80;;;;;;;8.17;94.05;97587.96;109641;1251;58865;-69
2022/09/21 07:12:25;;;;;;;9.50;6.20;;;;;;;8.25;93.30;97590.11;109923;1250;70914;-69
2022/09/21 07:14:54;;;;;;;11.30;7.50;;;;;;;8.35;93.24;97589.69;109742;1249;69034;-70
2022/09/21 07:17:23;;;;;;;7.60;5.50;;;;;;;8.46;92.53;97592.37;109844;1250;69463;-69
2022/09/21 07:19:52;;;;;;;10.10;7.30;;;;;;;8.61;92.56;97593.15;109910;1250;58955;-69
2022/09/21 07:22:21;;;;;;;7.80;5.60;;;;;;;8.66;91.91;97591.27;109858;1248;59026;-70
2022/09/21 07:24:49;;;;;;;9.50;6.60;;;;;;;8.77;91.02;97589.74;109923;1250;70543;-70
2022/09/21 07:27:18;;;;;;;6.30;4.80;;;;;;;8.92;89.37;97593.66;109876;1250;71141;-71
2022/09/21 07:29:47;;;;;;;5.40;3.70;;;;;;;9.24;89.39;97593.88;109825;1251;69821;-71
2022/09/21 07:32:16;;;;;;;5.80;4.30;;;;;;;9.57;87.99;97589.48;109774;1249;58885;-68
2022/09/21 07:34:45;;;;;;;6.60;5.30;;;;;;;9.82;86.48;97588.30;109625;1251;58961;-70
2022/09/21 07:37:15;;;;;;;6.50;4.60;;;;;;;9.96;84.57;97587.55;109729;1249;70926;-71
2022/09/21 07:39:43;;;;;;;5.50;3.90;;;;;;;10.13;85.80;97585.88;109815;1250;67597;-70
2022/09/21 07:42:12;;;;;;;4.90;3.80;;;;;;;10.21;82.28;97588.14;109998;1250;68608;-69
2022/09/21 07:44:41;;;;;;;5.20;3.80;;;;;;;10.31;83.90;97592.90;109867;1250;58995;-71
2022/09/21 07:47:12;;;;;;;6.80;4.20;;;;;;;10.38;86.21;97594.48;109906;1250;59303;-72
2022/09/21 07:49:41;;;;;;;6.80;4.90;;;;;;;10.40;86.00;97595.73;109681;1250;72180;-71
2022/09/21 07:52:10;;;;;;;6.30;5.10;;;;;;;10.38;82.74;97592.39;109834;1250;69195;-70
2022/09/21 07:54:39;;;;;;;5.90;4.90;;;;;;;10.38;82.21;97590.61;109879;1249;69438;-71
2022/09/21 07:59:57;;;;;;;6.80;5.20;;;;;;;10.29;81.17;97585.31;109848;1249;58895;-70
2022/09/21 08:02:25;;;;;;;7.00;5.50;;;;;;;10.33;81.96;97591.66;109895;1250;69762;-70
2022/09/21 08:04:54;;;;;;;8.20;6.20;;;;;;;10.30;80.95;97589.98;109898;1250;69689;-70
2022/09/21 08:07:23;;;;;;;6.30;5.40;;;;;;;10.32;80.26;97591.56;109692;1251;69757;-70
2022/09/21 08:09:51;;;;;;;6.30;4.50;;;;;;;10.41;81.56;97594.60;109735;1251;58864;-70
2022/09/21 08:12:21;;;;;;;7.50;5.60;;;;;;;10.48;80.42;97600.95;109900;1251;58958;-70
2022/09/21 08:14:50;;;;;;;7.50;5.30;;;;;;;10.52;80.55;97602.70;109851;1248;69960;-70
2022/09/21 08:17:20;;;;;;;6.50;4.70;;;;;;;10.57;79.55;97598.54;109676;1250;69722;-69
2022/09/21 08:19:48;;;;;;;6.80;5.30;;;;;;;10.48;78.19;97594.27;109718;1250;69667;-69
2022/09/21 08:22:17;;;;;;;5.90;4.00;;;;;;;10.61;79.71;97596.00;109565;1251;59294;-69
2022/09/21 08:24:47;;;;;;;6.10;4.60;;;;;;;10.67;78.21;97590.67;109692;1251;58897;-71
2022/09/21 08:27:16;;;;;;;6.80;4.90;;;;;;;10.93;78.88;97591.69;109657;1250;70788;-69
2022/09/21 08:29:45;;;;;;;6.30;4.20;;;;;;;11.24;77.25;97592.89;109647;1249;70090;-70
2022/09/21 08:32:14;;;;;;;5.60;4.40;;;;;;;11.56;75.62;97586.52;109681;1250;68855;-69
2022/09/21 08:35:03;;;;;;;7.10;5.70;;;;;;;11.78;74.46;97587.51;109725;1250;58901;-70
2022/09/21 08:37:34;;;;;;;4.70;3.60;;;;;;;11.84;73.72;97587.48;109667;1250;58851;-70
2022/09/21 08:40:06;;;;;;;6.40;4.50;;;;;;;11.77;72.34;97588.32;109706;1250;70747;-71
2022/09/21 08:42:35;;;;;;;4.80;3.60;;;;;;;11.89;72.70;97588.14;109777;1250;69591;-72
2022/09/21 08:45:12;;;;;;;5.00;3.80;;;;;;;12.16;75.06;97590.27;109806;1250;68539;-71
2022/09/21 08:47:47;;;;;;;5.50;3.40;;;;;;;12.45;74.48;97590.46;109774;1248;58822;-70
2022/09/21 08:50:38;;;;;;;4.30;3.40;;;;;;;12.64;72.70;97584.59;109671;1250;58884;-71
2022/09/21 08:53:12;;;;;;;;;;;;;;;12.89;74.38;97586.33;109980;1250;70838;-70
2022/09/21 08:55:41;;;;;;;6.00;4.60;;;;;;;13.00;71.86;97586.64;109801;1248;68454;-70
2022/09/21 08:58:27;;;;;;;5.40;4.00;;;;;;;13.04;70.61;97587.21;109810;1249;68613;-70
2022/09/21 09:01:30;;;;;;;7.10;5.00;;;;;;;13.10;69.45;97584.13;109764;1249;59012;-70
2022/09/21 09:04:15;;;;;;;4.40;3.50;;;;;;;13.14;68.06;97586.27;109697;1250;58839;-71
2022/09/21 09:06:47;;;;;;;5.00;3.90;;;;;;;13.20;68.87;97586.96;109810;1250;70821;-69
2022/09/21 09:09:53;;;;;;;5.50;4.60;;;;;;;13.20;67.23;97583.33;109618;1250;69182;-70
2022/09/21 09:12:54;;;;;;;5.10;4.00;;;;;;;13.20;67.72;97576.15;109460;1251;69223;-71
2022/09/21 09:15:47;;;;;;;4.50;3.70;;;;;;;13.09;67.69;97576.85;109788;1250;58970;-69
2022/09/21 09:18:44;;;;;;;5.70;4.40;;;;;;;13.05;67.91;97576.66;109623;1251;58955;-69
2022/09/21 09:21:17;;;;;;;5.30;4.30;;;;;;;12.97;68.62;97572.22;109635;1250;70980;-69
2022/09/21 09:24:03;;;;;;;5.70;4.90;;;;;;;12.94;66.58;97573.83;109681;1250;68442;-70
2022/09/21 09:26:46;;;;;;;5.10;4.20;;;;;;;13.00;69.02;97571.64;109700;1250;69410;-70
2022/09/21 09:29:19;;;;;;;5.30;3.70;;;;;;;13.09;68.54;97570.43;109706;1250;58953;-70
2022/09/21 09:31:53;;;;;;;5.90;4.10;;;;;;;13.22;68.47;97569.52;109687;1250;58898;-69
2022/09/21 09:34:31;;;;;;;5.10;4.00;;;;;;;13.36;67.51;97564.00;109944;1249;69793;-70
2022/09/21 09:37:14;;;;;;;4.90;3.60;;;;;;;13.40;66.79;97559.36;109637;1250;68738;-70
2022/09/21 09:39:54;;;;;;;4.10;3.00;;;;;;;13.45;67.10;97563.78;109697;1248;69345;-69
2022/09/21 09:42:46;;;;;;;4.70;3.80;;;;;;;13.45;66.83;97561.87;109641;1250;58984;-70
2022/09/21 09:45:36;;;;;;;4.40;3.80;;;;;;;13.48;65.91;97564.10;109652;1250;58882;-69
2022/09/21 09:48:32;;;;;;;4.40;3.60;;;;;;;13.56;66.62;97563.62;109695;1250;71387;-70
2022/09/21 09:51:03;;;;;;;4.80;3.60;;;;;;;13.63;66.25;97559.33;109742;1250;69269;-70
2022/09/21 09:53:32;;;;;;;5.00;4.30;;;;;;;13.71;66.08;97555.38;109792;1250;70137;-69
2022/09/21 09:56:01;;;;;;;;;;;;;;;13.74;64.98;97557.20;109684;1249;58961;-69
2022/09/21 09:58:30;;;;;;;4.50;3.40;;;;;;;13.86;65.41;97554.45;109804;1249;58951;-69
2022/09/21 10:01:00;;;;;;;4.70;3.80;;;;;;;13.92;64.59;97556.40;109791;1250;70126;-70
2022/09/21 10:03:29;;;;;;;5.10;4.40;;;;;;;13.98;64.86;97555.02;109754;1250;68694;-70
2022/09/21 10:05:57;;;;;;;4.10;3.10;;;;;;;13.98;63.98;97552.75;109900;1249;69682;-70
2022/09/21 10:08:29;;;;;;;4.50;3.20;;;;;;;14.00;63.01;97554.69;109912;1248;58965;-70
2022/09/21 10:10:58;;;;;;;3.90;3.40;;;;;;;14.08;62.30;97554.06;109733;1248;58866;-69
2022/09/21 10:13:38;;;;;;;4.20;3.20;;;;;;;14.04;61.02;97558.71;109714;1250;70838;-69
2022/09/21 10:16:13;;;;;;;3.60;2.80;;;;;;;14.02;61.88;97555.05;109707;1249;69503;-70
2022/09/21 10:18:48;;;;;;;4.60;3.70;;;;;;;13.89;59.42;97555.48;109702;1250;68632;-70
2022/09/21 10:21:25;;;;;;;3.10;2.60;;;;;;;13.86;59.79;97552.91;109692;1250;58898;-70
2022/09/21 10:24:06;;;;;;;3.30;2.70;;;;;;;14.25;59.44;97553.41;109733;1250;58928;-72
2022/09/21 10:26:47;;;;;;;4.00;2.80;;;;;;;14.68;59.08;97555.86;109764;1250;69915;-72
2022/09/21 10:29:24;;;;;;;3.00;2.60;;;;;;;14.92;57.99;97549.97;109839;1250;69234;-71
2022/09/21 10:31:55;;;;;;;4.20;2.70;;;;;;;15.00;56.04;97551.31;109762;1250;70093;-70
2022/09/21 10:34:29;;;;;;;3.20;2.20;;;;;;;15.00;54.29;97548.37;109777;1250;58904;-71
2022/09/21 10:37:01;;;;;;;3.10;2.20;;;;;;;15.00;55.95;97544.81;109784;1250;58840;-71
2022/09/21 10:39:34;;;;;;;3.20;2.80;;;;;;;15.74;56.49;97542.34;109834;1250;71333;-71
2022/09/21 10:42:12;;;;;;;3.30;2.60;;;;;;;16.26;55.53;97544.78;110101;1249;69341;-70
2022/09/21 10:44:44;;;;;;;3.20;2.80;;;;;;;16.67;57.21;97540.39;109921;1250;69107;-71
2022/09/21 10:47:13;;;;;;;3.30;2.80;;;;;;;17.02;53.91;97540.56;110036;1248;58886;-72
2022/09/21 10:49:56;;;;;;;3.40;2.50;;;;;;;17.21;54.29;97539.86;109905;1249;58872;-71
2022/09/21 10:52:33;;;;;;;3.20;2.50;;;;;;;17.23;51.99;97537.38;110056;1248;70776;-70
2022/09/21 10:55:03;;;;;;;3.30;2.90;;;;;;;17.06;52.02;97536.45;109932;1249;68584;-70
2022/09/21 10:57:33;;;;;;;3.00;2.50;;;;;;;17.42;52.88;97531.14;109688;1251;70096;-70
2022/09/21 11:00:35;;;;;;;2.70;2.10;;;;;;;18.23;50.49;97532.17;109646;1250;58862;-70
2022/09/21 11:03:41;;;;;;;3.00;2.60;;;;;;;19.20;47.31;97529.73;109614;1250;58913;-69
2022/09/21 11:06:15;;;;;;;3.30;2.40;;;;;;;19.54;44.20;97522.89;109726;1250;69599;-70
2022/09/21 11:08:48;;;;;;;2.30;1.70;;;;;;;20.03;42.76;97521.66;109732;1249;68579;-72
2022/09/21 11:11:29;;;;;;;2.40;1.90;;;;;;;20.74;40.73;97516.80;109808;1250;68655;-70
2022/09/21 11:14:46;;;;;;;2.70;2.30;;;;;;;20.61;40.51;97512.85;109913;1250;58967;-71
2022/09/21 11:17:57;;;;;;;2.20;2.00;;;;;;;21.71;39.31;97506.33;109430;1252;58849;-71
2022/09/21 11:20:41;;;;;;;1.70;1.50;;;;;;;21.41;37.81;97505.73;109580;1250;70954;-71
2022/09/21 11:23:27;;;;;;;2.50;1.60;;;;;;;22.92;38.76;97502.36;109642;1250;69236;-70
2022/09/21 11:26:24;;;;;;;2.60;1.80;;;;;;;23.19;34.96;97500.84;109754;1250;69647;-72
2022/09/21 11:29:01;;;;;;;1.60;1.40;;;;;;;23.91;35.75;97491.42;109612;1250;59385;-71
2022/09/21 11:31:48;;;;;;;2.00;1.60;;;;;;;23.49;33.91;97486.02;109666;1249;58880;-71
2022/09/21 11:34:18;;;;;;;1.80;1.40;;;;;;;22.79;34.95;97487.27;109791;1248;69944;-72
2022/09/21 11:36:49;;;;;;;2.70;1.60;;;;;;;22.47;36.20;97487.59;109848;1250;69440;-70
2022/09/21 11:39:33;;;;;;;1.70;1.40;;;;;;;21.74;36.58;97487.55;109590;1250;68650;-71
2022/09/21 11:42:20;;;;;;;2.40;1.80;;;;;;;21.05;38.87;97486.18;109835;1249;58967;-70
2022/09/21 11:44:59;;;;;;;2.00;1.40;;;;;;;20.00;40.43;97482.81;109780;1250;58903;-71
2022/09/21 11:48:02;;;;;;;2.00;1.70;;;;;;;19.42;41.98;97479.65;109827;1250;70845;-71
2022/09/21 11:50:55;;;;;;;2.50;1.80;;;;;;;18.86;42.90;97482.23;109788;1250;69394;-72
2022/09/21 11:54:04;;;;;;;2.90;2.60;;;;;;;18.17;45.27;97474.83;109883;1249;69557;-72
2022/09/21 11:56:49;;;;;;;3.10;2.70;;;;;;;17.36;47.04;97473.27;109789;1250;58927;-72
2022/09/21 11:59:37;;;;;;;3.10;2.50;;;;;;;16.81;48.76;97472.64;109874;1250;58818;-72
2022/09/21 12:02:29;;;;;;;2.50;2.10;;;;;;;16.45;50.64;97469.48;109823;1249;70217;-72
2022/09/21 12:05:15;;;;;;;2.80;2.10;;;;;;;16.29;50.99;97463.64;109757;1248;69469;-69
2022/09/21 12:08:00;;;;;;;3.10;2.10;;;;;;;16.70;52.03;97462.11;110012;1250;69822;-72
2022/09/21 12:10:42;;;;;;;3.30;2.30;;;;;;;18.06;48.09;97461.46;109766;1249;59027;-72